Terminal Aerodrome Forecast
Issued by NWS Kansas City/Pleasant Hill, MO

Home | Current Version | Previous Version | Text Only | Print | Product List | Glossary On
Versions: 1 2 3 4 5 6 7 8 9 10 11 12 13
000
FTUS43 KEAX 061129
TAFMCI
TAF
KMCI 061129Z 0612/0712 34014KT P6SM BKN070
     FM061500 32013G20KT P6SM BKN250
     FM062200 29007KT P6SM BKN200
     FM070500 33006KT P6SM OVC100=

USA.gov is the U.S. government's official web portal to all federal, state and local government web resources and services.